sensor_id;sensor_type;location;lat;lon;timestamp;P1;durP1;ratioP1;P2;durP2;ratioP2
30966;SDS011;17649;51.836;8.330;2024-03-23T00:53:39;22.15;;;6.63;;
30966;SDS011;17649;51.836;8.330;2024-03-23T00:56:40;17.17;;;5.68;;
30966;SDS011;17649;51.836;8.330;2024-03-23T00:59:41;22.13;;;6.38;;
30966;SDS011;17649;51.836;8.330;2024-03-23T01:02:44;28.15;;;5.30;;
30966;SDS011;17649;51.836;8.330;2024-03-23T01:05:46;24.27;;;5.55;;
30966;SDS011;17649;51.836;8.330;2024-03-23T01:08:51;29.77;;;5.57;;
30966;SDS011;17649;51.836;8.330;2024-03-23T01:11:52;18.33;;;6.38;;
30966;SDS011;17649;51.836;8.330;2024-03-23T01:14:53;18.13;;;5.10;;
30966;SDS011;17649;51.836;8.330;2024-03-23T01:17:53;22.02;;;5.38;;
30966;SDS011;17649;51.836;8.330;2024-03-23T01:20:53;26.98;;;5.88;;
30966;SDS011;17649;51.836;8.330;2024-03-23T01:23:54;13.70;;;4.70;;
30966;SDS011;17649;51.836;8.330;2024-03-23T01:26:55;11.95;;;4.78;;
30966;SDS011;17649;51.836;8.330;2024-03-23T01:29:56;24.77;;;5.70;;
30966;SDS011;17649;51.836;8.330;2024-03-23T01:32:56;22.55;;;5.75;;
30966;SDS011;17649;51.836;8.330;2024-03-23T01:35:56;34.35;;;6.07;;
30966;SDS011;17649;51.836;8.330;2024-03-23T01:38:58;19.67;;;5.13;;
30966;SDS011;17649;51.836;8.330;2024-03-23T01:41:59;28.35;;;6.13;;
30966;SDS011;17649;51.836;8.330;2024-03-23T01:44:59;21.80;;;6.80;;
30966;SDS011;17649;51.836;8.330;2024-03-23T01:47:59;15.88;;;5.75;;
30966;SDS011;17649;51.836;8.330;2024-03-23T01:51:00;23.98;;;6.07;;
30966;SDS011;17649;51.836;8.330;2024-03-23T01:54:03;31.48;;;6.25;;
30966;SDS011;17649;51.836;8.330;2024-03-23T01:57:06;18.00;;;5.32;;
30966;SDS011;17649;51.836;8.330;2024-03-23T02:00:06;24.77;;;5.80;;
30966;SDS011;17649;51.836;8.330;2024-03-23T02:03:25;19.27;;;5.20;;
30966;SDS011;17649;51.836;8.330;2024-03-23T02:06:26;20.35;;;5.00;;
30966;SDS011;17649;51.836;8.330;2024-03-23T02:09:27;17.25;;;5.32;;
30966;SDS011;17649;51.836;8.330;2024-03-23T02:12:27;17.65;;;4.70;;
30966;SDS011;17649;51.836;8.330;2024-03-23T02:15:28;20.35;;;5.72;;
30966;SDS011;17649;51.836;8.330;2024-03-23T02:18:29;22.48;;;5.05;;
30966;SDS011;17649;51.836;8.330;2024-03-23T02:21:29;23.45;;;5.30;;
30966;SDS011;17649;51.836;8.330;2024-03-23T02:24:31;24.17;;;5.38;;
30966;SDS011;17649;51.836;8.330;2024-03-23T02:27:34;23.33;;;5.53;;
30966;SDS011;17649;51.836;8.330;2024-03-23T02:30:39;16.95;;;4.78;;
30966;SDS011;17649;51.836;8.330;2024-03-23T02:33:40;15.70;;;4.65;;
30966;SDS011;17649;51.836;8.330;2024-03-23T02:36:41;17.75;;;5.10;;
30966;SDS011;17649;51.836;8.330;2024-03-23T02:39:41;17.00;;;5.95;;
30966;SDS011;17649;51.836;8.330;2024-03-23T02:42:43;15.40;;;4.93;;
30966;SDS011;17649;51.836;8.330;2024-03-23T02:45:43;13.18;;;4.20;;
30966;SDS011;17649;51.836;8.330;2024-03-23T02:48:44;24.95;;;4.68;;
30966;SDS011;17649;51.836;8.330;2024-03-23T02:51:44;17.92;;;5.03;;
30966;SDS011;17649;51.836;8.330;2024-03-23T02:54:48;18.73;;;5.18;;
30966;SDS011;17649;51.836;8.330;2024-03-23T02:57:48;18.75;;;5.10;;
30966;SDS011;17649;51.836;8.330;2024-03-23T03:00:49;22.02;;;5.22;;
30966;SDS011;17649;51.836;8.330;2024-03-23T03:03:50;16.88;;;4.28;;
30966;SDS011;17649;51.836;8.330;2024-03-23T03:06:50;12.52;;;4.32;;
30966;SDS011;17649;51.836;8.330;2024-03-23T03:09:50;12.98;;;4.90;;
30966;SDS011;17649;51.836;8.330;2024-03-23T03:12:51;17.02;;;4.05;;
30966;SDS011;17649;51.836;8.330;2024-03-23T03:15:51;19.67;;;3.30;;
30966;SDS011;17649;51.836;8.330;2024-03-23T03:18:53;18.63;;;4.28;;
30966;SDS011;17649;51.836;8.330;2024-03-23T03:21:53;10.80;;;3.20;;
30966;SDS011;17649;51.836;8.330;2024-03-23T03:24:54;9.60;;;3.58;;
30966;SDS011;17649;51.836;8.330;2024-03-23T03:27:56;12.13;;;4.18;;
30966;SDS011;17649;51.836;8.330;2024-03-23T03:30:56;16.25;;;3.85;;
30966;SDS011;17649;51.836;8.330;2024-03-23T03:33:57;16.35;;;5.20;;
30966;SDS011;17649;51.836;8.330;2024-03-23T03:36:59;11.73;;;3.85;;
30966;SDS011;17649;51.836;8.330;2024-03-23T03:39:59;17.60;;;4.97;;
30966;SDS011;17649;51.836;8.330;2024-03-23T03:43:00;16.88;;;4.82;;
30966;SDS011;17649;51.836;8.330;2024-03-23T03:46:00;13.73;;;4.45;;
30966;SDS011;17649;51.836;8.330;2024-03-23T03:49:01;17.67;;;4.43;;
30966;SDS011;17649;51.836;8.330;2024-03-23T03:52:02;10.35;;;4.07;;
30966;SDS011;17649;51.836;8.330;2024-03-23T03:55:04;8.88;;;3.75;;
30966;SDS011;17649;51.836;8.330;2024-03-23T03:58:12;12.90;;;4.13;;
30966;SDS011;17649;51.836;8.330;2024-03-23T04:01:13;14.80;;;3.58;;
30966;SDS011;17649;51.836;8.330;2024-03-23T04:04:15;14.38;;;3.90;;
30966;SDS011;17649;51.836;8.330;2024-03-23T04:07:16;9.57;;;3.45;;
30966;SDS011;17649;51.836;8.330;2024-03-23T04:10:18;22.45;;;4.55;;
30966;SDS011;17649;51.836;8.330;2024-03-23T04:13:18;12.05;;;4.80;;
30966;SDS011;17649;51.836;8.330;2024-03-23T04:16:28;18.70;;;4.43;;
30966;SDS011;17649;51.836;8.330;2024-03-23T04:19:30;18.52;;;5.05;;
30966;SDS011;17649;51.836;8.330;2024-03-23T04:22:30;20.45;;;5.57;;
30966;SDS011;17649;51.836;8.330;2024-03-23T04:25:31;21.70;;;5.43;;
30966;SDS011;17649;51.836;8.330;2024-03-23T04:28:31;17.45;;;5.38;;
30966;SDS011;17649;51.836;8.330;2024-03-23T04:31:32;18.30;;;5.95;;
30966;SDS011;17649;51.836;8.330;2024-03-23T04:34:35;22.73;;;5.32;;
30966;SDS011;17649;51.836;8.330;2024-03-23T04:37:35;12.30;;;4.35;;
30966;SDS011;17649;51.836;8.330;2024-03-23T04:40:36;18.13;;;5.17;;
30966;SDS011;17649;51.836;8.330;2024-03-23T04:43:37;21.88;;;4.40;;
30966;SDS011;17649;51.836;8.330;2024-03-23T04:46:37;23.60;;;4.35;;
30966;SDS011;17649;51.836;8.330;2024-03-23T04:49:37;14.20;;;4.53;;
30966;SDS011;17649;51.836;8.330;2024-03-23T04:52:38;17.75;;;4.60;;
30966;SDS011;17649;51.836;8.330;2024-03-23T04:55:38;19.95;;;4.65;;
30966;SDS011;17649;51.836;8.330;2024-03-23T04:58:39;17.33;;;4.43;;
30966;SDS011;17649;51.836;8.330;2024-03-23T05:01:39;11.70;;;3.78;;
30966;SDS011;17649;51.836;8.330;2024-03-23T05:04:42;22.30;;;4.63;;
30966;SDS011;17649;51.836;8.330;2024-03-23T05:07:42;14.40;;;4.00;;
30966;SDS011;17649;51.836;8.330;2024-03-23T05:10:43;20.80;;;4.00;;
30966;SDS011;17649;51.836;8.330;2024-03-23T05:13:43;20.38;;;3.97;;
30966;SDS011;17649;51.836;8.330;2024-03-23T05:16:43;21.38;;;4.30;;
30966;SDS011;17649;51.836;8.330;2024-03-23T05:19:44;12.40;;;4.60;;
30966;SDS011;17649;51.836;8.330;2024-03-23T05:22:44;18.58;;;3.90;;
30966;SDS011;17649;51.836;8.330;2024-03-23T05:25:45;18.10;;;3.70;;
30966;SDS011;17649;51.836;8.330;2024-03-23T05:28:45;9.75;;;2.75;;
30966;SDS011;17649;51.836;8.330;2024-03-23T05:31:48;17.52;;;5.10;;
30966;SDS011;17649;51.836;8.330;2024-03-23T05:34:50;24.67;;;4.40;;
30966;SDS011;17649;51.836;8.330;2024-03-23T05:37:58;14.13;;;5.10;;
30966;SDS011;17649;51.836;8.330;2024-03-23T05:40:59;16.40;;;4.15;;
30966;SDS011;17649;51.836;8.330;2024-03-23T05:44:02;13.73;;;3.90;;
30966;SDS011;17649;51.836;8.330;2024-03-23T05:47:02;17.80;;;4.97;;
30966;SDS011;17649;51.836;8.330;2024-03-23T05:50:04;20.75;;;4.20;;
30966;SDS011;17649;51.836;8.330;2024-03-23T05:53:04;17.75;;;5.55;;
30966;SDS011;17649;51.836;8.330;2024-03-23T05:56:05;15.15;;;4.07;;
30966;SDS011;17649;51.836;8.330;2024-03-23T05:59:06;15.18;;;4.88;;
30966;SDS011;17649;51.836;8.330;2024-03-23T06:02:07;31.50;;;7.45;;
30966;SDS011;17649;51.836;8.330;2024-03-23T06:05:11;14.40;;;4.30;;
30966;SDS011;17649;51.836;8.330;2024-03-23T06:20:52;26.00;;;8.65;;
30966;SDS011;17649;51.836;8.330;2024-03-23T06:23:53;30.63;;;8.20;;
30966;SDS011;17649;51.836;8.330;2024-03-23T06:26:53;25.00;;;6.75;;
30966;SDS011;17649;51.836;8.330;2024-03-23T06:29:57;28.98;;;8.32;;
30966;SDS011;17649;51.836;8.330;2024-03-23T06:32:58;25.38;;;8.05;;
30966;SDS011;17649;51.836;8.330;2024-03-23T06:35:58;33.45;;;9.68;;
30966;SDS011;17649;51.836;8.330;2024-03-23T06:38:58;33.28;;;8.57;;
30966;SDS011;17649;51.836;8.330;2024-03-23T06:41:59;27.08;;;9.52;;
30966;SDS011;17649;51.836;8.330;2024-03-23T06:48:09;33.97;;;9.73;;
30966;SDS011;17649;51.836;8.330;2024-03-23T06:51:09;40.10;;;10.35;;
30966;SDS011;17649;51.836;8.330;2024-03-23T06:54:10;31.33;;;9.18;;
30966;SDS011;17649;51.836;8.330;2024-03-23T07:13:01;47.83;;;13.38;;
30966;SDS011;17649;51.836;8.330;2024-03-23T07:16:01;26.00;;;11.98;;
30966;SDS011;17649;51.836;8.330;2024-03-23T07:19:02;37.03;;;13.13;;
30966;SDS011;17649;51.836;8.330;2024-03-23T07:22:02;36.42;;;12.88;;
30966;SDS011;17649;51.836;8.330;2024-03-23T07:25:03;33.97;;;13.18;;
30966;SDS011;17649;51.836;8.330;2024-03-23T07:28:03;39.63;;;12.77;;
30966;SDS011;17649;51.836;8.330;2024-03-23T07:31:04;29.23;;;12.57;;
30966;SDS011;17649;51.836;8.330;2024-03-23T07:34:06;34.75;;;15.07;;
30966;SDS011;17649;51.836;8.330;2024-03-23T07:40:16;35.88;;;13.88;;
30966;SDS011;17649;51.836;8.330;2024-03-23T07:43:17;42.75;;;13.90;;
30966;SDS011;17649;51.836;8.330;2024-03-23T07:49:22;39.42;;;13.90;;
30966;SDS011;17649;51.836;8.330;2024-03-23T07:52:22;37.83;;;12.48;;
30966;SDS011;17649;51.836;8.330;2024-03-23T07:55:23;36.30;;;12.95;;
30966;SDS011;17649;51.836;8.330;2024-03-23T07:58:23;32.50;;;12.38;;
30966;SDS011;17649;51.836;8.330;2024-03-23T08:01:24;44.55;;;11.45;;
30966;SDS011;17649;51.836;8.330;2024-03-23T08:04:25;39.60;;;12.88;;
30966;SDS011;17649;51.836;8.330;2024-03-23T08:07:26;41.67;;;10.37;;
30966;SDS011;17649;51.836;8.330;2024-03-23T08:19:57;30.05;;;9.65;;
30966;SDS011;17649;51.836;8.330;2024-03-23T08:22:58;32.38;;;9.30;;
30966;SDS011;17649;51.836;8.330;2024-03-23T08:25:58;33.70;;;10.30;;
30966;SDS011;17649;51.836;8.330;2024-03-23T08:32:13;32.88;;;10.60;;
30966;SDS011;17649;51.836;8.330;2024-03-23T08:35:13;30.75;;;9.85;;
30966;SDS011;17649;51.836;8.330;2024-03-23T08:38:14;24.90;;;9.98;;
30966;SDS011;17649;51.836;8.330;2024-03-23T08:41:14;29.45;;;8.45;;
30966;SDS011;17649;51.836;8.330;2024-03-23T08:44:14;21.35;;;8.25;;
30966;SDS011;17649;51.836;8.330;2024-03-23T08:47:15;27.20;;;8.02;;
30966;SDS011;17649;51.836;8.330;2024-03-23T08:50:16;20.95;;;7.68;;
30966;SDS011;17649;51.836;8.330;2024-03-23T08:53:17;22.77;;;8.00;;
30966;SDS011;17649;51.836;8.330;2024-03-23T08:56:17;22.65;;;7.90;;
30966;SDS011;17649;51.836;8.330;2024-03-23T08:59:21;29.13;;;6.82;;
30966;SDS011;17649;51.836;8.330;2024-03-23T09:02:23;21.42;;;7.75;;
30966;SDS011;17649;51.836;8.330;2024-03-23T09:05:24;20.20;;;7.28;;
30966;SDS011;17649;51.836;8.330;2024-03-23T09:08:24;19.92;;;6.40;;
30966;SDS011;17649;51.836;8.330;2024-03-23T09:24:05;26.02;;;7.43;;
30966;SDS011;17649;51.836;8.330;2024-03-23T09:27:06;18.17;;;7.13;;
30966;SDS011;17649;51.836;8.330;2024-03-23T09:30:06;13.75;;;5.53;;
30966;SDS011;17649;51.836;8.330;2024-03-23T09:33:11;18.60;;;5.10;;
30966;SDS011;17649;51.836;8.330;2024-03-23T09:36:12;16.58;;;6.05;;
30966;SDS011;17649;51.836;8.330;2024-03-23T09:39:12;24.58;;;6.63;;
30966;SDS011;17649;51.836;8.330;2024-03-23T09:42:13;19.42;;;5.32;;
